sensor_id;sensor_type;location;lat;lon;timestamp;P1;durP1;ratioP1;P2;durP2;ratioP2
980;SDS011;479;53.514;9.994;2022-08-16T00:00:25;11.73;;;10.83;;
980;SDS011;479;53.514;9.994;2022-08-16T00:02:54;12.17;;;11.27;;
980;SDS011;479;53.514;9.994;2022-08-16T00:05:24;13.00;;;11.87;;
980;SDS011;479;53.514;9.994;2022-08-16T00:07:51;14.00;;;12.80;;
980;SDS011;479;53.514;9.994;2022-08-16T00:10:20;14.53;;;13.10;;
980;SDS011;479;53.514;9.994;2022-08-16T00:12:48;13.20;;;12.10;;
980;SDS011;479;53.514;9.994;2022-08-16T00:15:17;14.33;;;13.03;;
980;SDS011;479;53.514;9.994;2022-08-16T00:17:47;13.73;;;12.63;;
980;SDS011;479;53.514;9.994;2022-08-16T00:20:14;13.60;;;12.50;;
980;SDS011;479;53.514;9.994;2022-08-16T00:22:42;14.10;;;12.90;;
980;SDS011;479;53.514;9.994;2022-08-16T00:25:11;15.50;;;13.93;;
980;SDS011;479;53.514;9.994;2022-08-16T00:27:40;19.43;;;17.60;;
980;SDS011;479;53.514;9.994;2022-08-16T00:30:08;17.27;;;15.70;;
980;SDS011;479;53.514;9.994;2022-08-16T00:32:37;14.23;;;12.90;;
980;SDS011;479;53.514;9.994;2022-08-16T00:35:06;14.83;;;13.53;;
980;SDS011;479;53.514;9.994;2022-08-16T00:37:35;14.83;;;13.63;;
980;SDS011;479;53.514;9.994;2022-08-16T00:40:04;14.70;;;13.50;;
980;SDS011;479;53.514;9.994;2022-08-16T00:42:33;14.50;;;13.30;;
980;SDS011;479;53.514;9.994;2022-08-16T00:45:01;14.30;;;13.10;;
980;SDS011;479;53.514;9.994;2022-08-16T00:47:32;14.03;;;12.73;;
980;SDS011;479;53.514;9.994;2022-08-16T00:50:00;18.90;;;17.10;;
980;SDS011;479;53.514;9.994;2022-08-16T00:52:27;15.33;;;14.07;;
980;SDS011;479;53.514;9.994;2022-08-16T00:54:54;25.57;;;22.83;;
980;SDS011;479;53.514;9.994;2022-08-16T00:57:22;14.87;;;13.73;;
980;SDS011;479;53.514;9.994;2022-08-16T00:59:49;18.57;;;16.77;;
980;SDS011;479;53.514;9.994;2022-08-16T01:02:16;23.57;;;21.37;;
980;SDS011;479;53.514;9.994;2022-08-16T01:04:43;14.53;;;13.23;;
980;SDS011;479;53.514;9.994;2022-08-16T01:07:11;15.50;;;13.87;;
980;SDS011;479;53.514;9.994;2022-08-16T01:09:38;13.90;;;12.80;;
980;SDS011;479;53.514;9.994;2022-08-16T01:12:06;15.27;;;13.97;;
980;SDS011;479;53.514;9.994;2022-08-16T01:14:38;16.03;;;14.40;;
980;SDS011;479;53.514;9.994;2022-08-16T01:17:08;23.50;;;21.37;;
980;SDS011;479;53.514;9.994;2022-08-16T01:19:37;16.37;;;14.87;;
980;SDS011;479;53.514;9.994;2022-08-16T01:22:08;16.67;;;15.20;;
980;SDS011;479;53.514;9.994;2022-08-16T01:24:42;16.40;;;14.97;;
980;SDS011;479;53.514;9.994;2022-08-16T01:27:13;15.80;;;14.40;;
980;SDS011;479;53.514;9.994;2022-08-16T01:29:46;16.23;;;14.63;;
980;SDS011;479;53.514;9.994;2022-08-16T01:32:16;17.17;;;15.43;;
980;SDS011;479;53.514;9.994;2022-08-16T01:34:43;18.37;;;16.77;;
980;SDS011;479;53.514;9.994;2022-08-16T01:37:11;18.87;;;17.17;;
980;SDS011;479;53.514;9.994;2022-08-16T01:39:39;19.03;;;17.40;;
980;SDS011;479;53.514;9.994;2022-08-16T01:42:08;18.77;;;16.83;;
980;SDS011;479;53.514;9.994;2022-08-16T01:44:36;17.27;;;15.57;;
980;SDS011;479;53.514;9.994;2022-08-16T01:47:04;18.63;;;17.10;;
980;SDS011;479;53.514;9.994;2022-08-16T01:49:34;19.73;;;17.93;;
980;SDS011;479;53.514;9.994;2022-08-16T01:52:04;18.90;;;17.20;;
980;SDS011;479;53.514;9.994;2022-08-16T01:55:08;20.00;;;18.20;;
980;SDS011;479;53.514;9.994;2022-08-16T01:57:36;19.50;;;17.90;;
980;SDS011;479;53.514;9.994;2022-08-16T02:00:05;18.87;;;16.97;;
980;SDS011;479;53.514;9.994;2022-08-16T02:02:39;20.10;;;18.30;;
980;SDS011;479;53.514;9.994;2022-08-16T02:05:06;19.10;;;17.40;;
980;SDS011;479;53.514;9.994;2022-08-16T02:07:34;18.00;;;16.30;;
980;SDS011;479;53.514;9.994;2022-08-16T02:10:01;19.80;;;18.20;;
980;SDS011;479;53.514;9.994;2022-08-16T02:12:40;18.27;;;16.77;;
980;SDS011;479;53.514;9.994;2022-08-16T02:15:09;19.57;;;17.77;;
980;SDS011;479;53.514;9.994;2022-08-16T02:17:36;18.90;;;17.07;;
980;SDS011;479;53.514;9.994;2022-08-16T02:20:05;19.50;;;17.80;;
980;SDS011;479;53.514;9.994;2022-08-16T02:22:33;19.87;;;18.03;;
980;SDS011;479;53.514;9.994;2022-08-16T02:25:00;19.63;;;18.00;;
980;SDS011;479;53.514;9.994;2022-08-16T02:27:29;20.17;;;18.47;;
980;SDS011;479;53.514;9.994;2022-08-16T02:29:57;20.20;;;18.30;;
980;SDS011;479;53.514;9.994;2022-08-16T02:32:25;19.70;;;17.97;;
980;SDS011;479;53.514;9.994;2022-08-16T02:34:51;18.33;;;16.80;;
980;SDS011;479;53.514;9.994;2022-08-16T02:37:19;17.83;;;16.00;;
980;SDS011;479;53.514;9.994;2022-08-16T02:39:45;21.20;;;19.20;;
980;SDS011;479;53.514;9.994;2022-08-16T02:42:12;20.57;;;18.77;;
980;SDS011;479;53.514;9.994;2022-08-16T02:44:40;21.70;;;19.70;;
980;SDS011;479;53.514;9.994;2022-08-16T02:47:08;21.27;;;19.33;;
980;SDS011;479;53.514;9.994;2022-08-16T02:49:35;21.10;;;19.03;;
980;SDS011;479;53.514;9.994;2022-08-16T02:52:03;22.33;;;20.30;;
980;SDS011;479;53.514;9.994;2022-08-16T02:54:31;25.40;;;20.27;;
980;SDS011;479;53.514;9.994;2022-08-16T02:56:59;20.73;;;18.73;;
980;SDS011;479;53.514;9.994;2022-08-16T02:59:26;21.60;;;19.63;;
980;SDS011;479;53.514;9.994;2022-08-16T03:01:53;20.57;;;18.77;;
980;SDS011;479;53.514;9.994;2022-08-16T03:04:26;20.80;;;18.90;;
980;SDS011;479;53.514;9.994;2022-08-16T03:06:54;22.10;;;20.20;;
980;SDS011;479;53.514;9.994;2022-08-16T03:09:34;21.00;;;19.20;;
980;SDS011;479;53.514;9.994;2022-08-16T03:12:03;23.27;;;21.20;;
980;SDS011;479;53.514;9.994;2022-08-16T03:14:31;21.97;;;20.07;;
980;SDS011;479;53.514;9.994;2022-08-16T03:16:59;23.33;;;21.30;;
980;SDS011;479;53.514;9.994;2022-08-16T03:19:33;22.97;;;20.90;;
980;SDS011;479;53.514;9.994;2022-08-16T03:22:01;23.87;;;21.60;;
980;SDS011;479;53.514;9.994;2022-08-16T03:24:28;24.40;;;22.30;;
980;SDS011;479;53.514;9.994;2022-08-16T03:26:57;23.37;;;21.30;;
980;SDS011;479;53.514;9.994;2022-08-16T03:29:25;25.10;;;22.80;;
980;SDS011;479;53.514;9.994;2022-08-16T03:31:52;41.30;;;37.07;;
980;SDS011;479;53.514;9.994;2022-08-16T03:34:19;26.30;;;23.90;;
980;SDS011;479;53.514;9.994;2022-08-16T03:36:48;25.73;;;23.23;;
980;SDS011;479;53.514;9.994;2022-08-16T03:39:16;25.30;;;22.90;;
980;SDS011;479;53.514;9.994;2022-08-16T03:41:42;26.83;;;24.47;;
980;SDS011;479;53.514;9.994;2022-08-16T03:44:10;24.90;;;22.70;;
980;SDS011;479;53.514;9.994;2022-08-16T03:46:37;25.07;;;22.80;;
980;SDS011;479;53.514;9.994;2022-08-16T03:49:04;24.83;;;22.60;;
980;SDS011;479;53.514;9.994;2022-08-16T03:51:34;25.30;;;22.97;;
980;SDS011;479;53.514;9.994;2022-08-16T03:54:06;24.97;;;22.63;;
980;SDS011;479;53.514;9.994;2022-08-16T03:56:33;26.37;;;24.03;;
980;SDS011;479;53.514;9.994;2022-08-16T03:59:00;26.47;;;24.17;;
980;SDS011;479;53.514;9.994;2022-08-16T04:01:34;26.03;;;23.67;;
980;SDS011;479;53.514;9.994;2022-08-16T04:04:01;27.20;;;24.80;;
980;SDS011;479;53.514;9.994;2022-08-16T04:06:28;26.50;;;24.20;;
980;SDS011;479;53.514;9.994;2022-08-16T04:08:55;26.53;;;24.00;;
980;SDS011;479;53.514;9.994;2022-08-16T04:11:23;25.00;;;22.70;;
980;SDS011;479;53.514;9.994;2022-08-16T04:13:52;26.60;;;23.80;;
980;SDS011;479;53.514;9.994;2022-08-16T04:16:20;25.90;;;23.37;;
980;SDS011;479;53.514;9.994;2022-08-16T04:18:48;27.03;;;24.63;;
980;SDS011;479;53.514;9.994;2022-08-16T04:21:15;27.17;;;24.77;;
980;SDS011;479;53.514;9.994;2022-08-16T04:23:42;28.80;;;26.10;;
980;SDS011;479;53.514;9.994;2022-08-16T04:26:09;27.27;;;24.83;;
980;SDS011;479;53.514;9.994;2022-08-16T04:28:40;26.27;;;23.77;;
980;SDS011;479;53.514;9.994;2022-08-16T04:31:09;27.27;;;24.47;;
980;SDS011;479;53.514;9.994;2022-08-16T04:33:39;26.60;;;24.20;;
980;SDS011;479;53.514;9.994;2022-08-16T04:36:06;27.70;;;24.90;;
980;SDS011;479;53.514;9.994;2022-08-16T04:38:34;28.67;;;26.00;;
980;SDS011;479;53.514;9.994;2022-08-16T04:41:01;27.80;;;25.27;;
980;SDS011;479;53.514;9.994;2022-08-16T04:43:28;28.30;;;25.30;;
980;SDS011;479;53.514;9.994;2022-08-16T04:45:59;27.90;;;25.30;;
980;SDS011;479;53.514;9.994;2022-08-16T04:48:31;28.77;;;25.97;;
980;SDS011;479;53.514;9.994;2022-08-16T04:50:59;27.63;;;25.13;;
980;SDS011;479;53.514;9.994;2022-08-16T04:53:34;29.70;;;26.93;;
980;SDS011;479;53.514;9.994;2022-08-16T04:56:02;28.07;;;25.37;;
980;SDS011;479;53.514;9.994;2022-08-16T04:58:30;29.00;;;26.30;;
980;SDS011;479;53.514;9.994;2022-08-16T05:01:00;27.27;;;24.67;;
980;SDS011;479;53.514;9.994;2022-08-16T05:03:29;27.53;;;24.93;;
980;SDS011;479;53.514;9.994;2022-08-16T05:05:56;26.80;;;24.27;;
980;SDS011;479;53.514;9.994;2022-08-16T05:08:25;27.57;;;24.90;;
980;SDS011;479;53.514;9.994;2022-08-16T05:11:01;27.10;;;24.40;;
980;SDS011;479;53.514;9.994;2022-08-16T05:13:31;28.00;;;25.40;;
980;SDS011;479;53.514;9.994;2022-08-16T05:16:01;27.43;;;24.80;;
980;SDS011;479;53.514;9.994;2022-08-16T05:18:29;25.77;;;23.43;;
980;SDS011;479;53.514;9.994;2022-08-16T05:20:57;25.57;;;23.03;;
980;SDS011;479;53.514;9.994;2022-08-16T05:23:24;27.63;;;24.87;;
980;SDS011;479;53.514;9.994;2022-08-16T05:25:51;27.80;;;25.07;;
980;SDS011;479;53.514;9.994;2022-08-16T05:28:19;28.73;;;25.80;;
980;SDS011;479;53.514;9.994;2022-08-16T05:30:51;26.77;;;24.17;;
980;SDS011;479;53.514;9.994;2022-08-16T05:33:23;29.27;;;26.47;;
980;SDS011;479;53.514;9.994;2022-08-16T05:35:52;32.30;;;25.50;;
980;SDS011;479;53.514;9.994;2022-08-16T05:38:25;28.80;;;26.10;;
980;SDS011;479;53.514;9.994;2022-08-16T05:40:55;28.77;;;25.67;;
980;SDS011;479;53.514;9.994;2022-08-16T05:43:23;27.37;;;24.80;;
980;SDS011;479;53.514;9.994;2022-08-16T05:45:51;28.97;;;26.27;;
980;SDS011;479;53.514;9.994;2022-08-16T05:48:19;27.97;;;25.43;;
980;SDS011;479;53.514;9.994;2022-08-16T05:50:55;28.83;;;25.93;;
980;SDS011;479;53.514;9.994;2022-08-16T05:53:22;28.23;;;25.30;;
980;SDS011;479;53.514;9.994;2022-08-16T05:56:02;30.20;;;27.17;;
980;SDS011;479;53.514;9.994;2022-08-16T05:58:31;27.07;;;24.40;;
980;SDS011;479;53.514;9.994;2022-08-16T06:00:59;26.73;;;24.23;;
980;SDS011;479;53.514;9.994;2022-08-16T06:03:26;26.90;;;24.20;;
980;SDS011;479;53.514;9.994;2022-08-16T06:05:58;24.23;;;22.03;;
980;SDS011;479;53.514;9.994;2022-08-16T06:08:26;26.30;;;23.70;;
980;SDS011;479;53.514;9.994;2022-08-16T06:10:53;23.67;;;21.20;;
980;SDS011;479;53.514;9.994;2022-08-16T06:13:20;24.50;;;22.20;;
980;SDS011;479;53.514;9.994;2022-08-16T06:15:48;21.90;;;19.87;;
980;SDS011;479;53.514;9.994;2022-08-16T06:18:16;22.60;;;20.50;;
980;SDS011;479;53.514;9.994;2022-08-16T06:20:44;23.03;;;20.90;;
980;SDS011;479;53.514;9.994;2022-08-16T06:23:22;24.17;;;21.57;;
980;SDS011;479;53.514;9.994;2022-08-16T06:25:59;22.40;;;20.20;;
980;SDS011;479;53.514;9.994;2022-08-16T06:28:31;21.60;;;19.53;;
980;SDS011;479;53.514;9.994;2022-08-16T06:30:58;22.80;;;20.30;;
980;SDS011;479;53.514;9.994;2022-08-16T06:33:25;20.17;;;18.37;;
980;SDS011;479;53.514;9.994;2022-08-16T06:35:53;22.07;;;20.17;;
980;SDS011;479;53.514;9.994;2022-08-16T06:38:23;20.33;;;18.60;;
980;SDS011;479;53.514;9.994;2022-08-16T06:40:50;17.67;;;16.17;;
980;SDS011;479;53.514;9.994;2022-08-16T06:43:17;18.07;;;16.37;;
980;SDS011;479;53.514;9.994;2022-08-16T06:45:47;17.30;;;15.60;;
980;SDS011;479;53.514;9.994;2022-08-16T06:48:23;17.07;;;15.57;;
980;SDS011;479;53.514;9.994;2022-08-16T06:50:50;16.40;;;15.00;;
980;SDS011;479;53.514;9.994;2022-08-16T06:53:18;15.70;;;14.43;;
980;SDS011;479;53.514;9.994;2022-08-16T06:56:00;15.93;;;14.47;;
980;SDS011;479;53.514;9.994;2022-08-16T06:58:44;16.37;;;14.87;;
980;SDS011;479;53.514;9.994;2022-08-16T07:01:16;17.27;;;15.70;;
980;SDS011;479;53.514;9.994;2022-08-16T07:03:48;16.10;;;14.70;;
980;SDS011;479;53.514;9.994;2022-08-16T07:06:16;16.13;;;14.50;;
980;SDS011;479;53.514;9.994;2022-08-16T07:08:44;17.07;;;15.50;;
980;SDS011;479;53.514;9.994;2022-08-16T07:11:14;16.30;;;14.70;;
980;SDS011;479;53.514;9.994;2022-08-16T07:13:41;17.17;;;15.57;;
980;SDS011;479;53.514;9.994;2022-08-16T07:16:10;17.17;;;15.33;;
980;SDS011;479;53.514;9.994;2022-08-16T07:18:41;15.60;;;13.97;;
980;SDS011;479;53.514;9.994;2022-08-16T07:21:09;14.33;;;13.13;;
980;SDS011;479;53.514;9.994;2022-08-16T07:23:37;15.43;;;14.03;;
980;SDS011;479;53.514;9.994;2022-08-16T07:26:11;15.40;;;14.00;;
980;SDS011;479;53.514;9.994;2022-08-16T07:28:43;15.17;;;13.73;;
980;SDS011;479;53.514;9.994;2022-08-16T07:31:11;14.93;;;13.73;;
980;SDS011;479;53.514;9.994;2022-08-16T07:33:41;14.93;;;13.63;;
980;SDS011;479;53.514;9.994;2022-08-16T07:36:12;16.37;;;14.67;;
980;SDS011;479;53.514;9.994;2022-08-16T07:38:43;14.80;;;13.53;;
980;SDS011;479;53.514;9.994;2022-08-16T07:41:12;15.03;;;13.77;;
980;SDS011;479;53.514;9.994;2022-08-16T07:43:49;16.00;;;14.50;;
980;SDS011;479;53.514;9.994;2022-08-16T07:46:16;15.00;;;13.60;;
980;SDS011;479;53.514;9.994;2022-08-16T07:48:44;16.00;;;14.53;;
980;SDS011;479;53.514;9.994;2022-08-16T07:51:11;15.67;;;14.40;;
980;SDS011;479;53.514;9.994;2022-08-16T07:53:40;14.50;;;13.10;;
980;SDS011;479;53.514;9.994;2022-08-16T07:56:09;15.00;;;13.60;;
980;SDS011;479;53.514;9.994;2022-08-16T07:58:38;15.17;;;13.93;;
980;SDS011;479;53.514;9.994;2022-08-16T08:01:11;15.27;;;13.87;;
980;SDS011;479;53.514;9.994;2022-08-16T08:04:05;15.50;;;13.53;;
980;SDS011;479;53.514;9.994;2022-08-16T08:06:37;14.60;;;13.33;;
980;SDS011;479;53.514;9.994;2022-08-16T08:09:10;12.93;;;11.80;;
980;SDS011;479;53.514;9.994;2022-08-16T08:11:38;13.60;;;12.30;;
980;SDS011;479;53.514;9.994;2022-08-16T08:14:07;13.20;;;12.00;;
980;SDS011;479;53.514;9.994;2022-08-16T08:16:40;14.80;;;13.40;;
980;SDS011;479;53.514;9.994;2022-08-16T08:19:09;13.30;;;12.27;;
980;SDS011;479;53.514;9.994;2022-08-16T08:21:37;13.53;;;12.27;;
980;SDS011;479;53.514;9.994;2022-08-16T08:24:06;14.00;;;12.60;;
980;SDS011;479;53.514;9.994;2022-08-16T08:26:34;15.00;;;13.70;;
980;SDS011;479;53.514;9.994;2022-08-16T08:29:01;13.87;;;12.67;;
980;SDS011;479;53.514;9.994;2022-08-16T08:31:30;14.20;;;13.07;;
980;SDS011;479;53.514;9.994;2022-08-16T08:33:59;14.87;;;11.23;;
980;SDS011;479;53.514;9.994;2022-08-16T08:36:29;12.50;;;11.20;;
980;SDS011;479;53.514;9.994;2022-08-16T08:38:58;12.80;;;11.63;;
980;SDS011;479;53.514;9.994;2022-08-16T08:41:25;11.07;;;10.27;;
980;SDS011;479;53.514;9.994;2022-08-16T08:43:54;13.13;;;11.50;;
980;SDS011;479;53.514;9.994;2022-08-16T08:46:22;12.30;;;11.20;;
980;SDS011;479;53.514;9.994;2022-08-16T08:48:52;11.97;;;10.97;;
980;SDS011;479;53.514;9.994;2022-08-16T08:51:22;11.73;;;10.70;;
980;SDS011;479;53.514;9.994;2022-08-16T08:53:52;11.50;;;10.40;;
980;SDS011;479;53.514;9.994;2022-08-16T08:56:19;12.13;;;11.03;;
980;SDS011;479;53.514;9.994;2022-08-16T08:58:46;12.10;;;11.00;;
980;SDS011;479;53.514;9.994;2022-08-16T09:01:18;11.30;;;10.40;;
980;SDS011;479;53.514;9.994;2022-08-16T09:03:48;12.93;;;11.97;;
980;SDS011;479;53.514;9.994;2022-08-16T09:06:16;10.77;;;9.87;;
980;SDS011;479;53.514;9.994;2022-08-16T09:08:45;13.00;;;11.93;;
980;SDS011;479;53.514;9.994;2022-08-16T09:11:12;11.77;;;10.80;;
980;SDS011;479;53.514;9.994;2022-08-16T09:13:39;11.93;;;10.70;;
980;SDS011;479;53.514;9.994;2022-08-16T09:16:07;11.10;;;10.30;;
980;SDS011;479;53.514;9.994;2022-08-16T09:18:36;12.17;;;10.93;;
980;SDS011;479;53.514;9.994;2022-08-16T09:21:05;12.40;;;11.20;;
980;SDS011;479;53.514;9.994;2022-08-16T09:23:32;10.47;;;9.67;;
980;SDS011;479;53.514;9.994;2022-08-16T09:26:03;11.57;;;10.57;;
980;SDS011;479;53.514;9.994;2022-08-16T09:28:32;11.90;;;10.77;;
980;SDS011;479;53.514;9.994;2022-08-16T09:31:07;11.70;;;10.80;;
980;SDS011;479;53.514;9.994;2022-08-16T09:33:35;11.87;;;10.87;;
980;SDS011;479;53.514;9.994;2022-08-16T09:36:02;11.40;;;10.60;;
980;SDS011;479;53.514;9.994;2022-08-16T09:38:29;11.60;;;10.40;;
980;SDS011;479;53.514;9.994;2022-08-16T09:40:56;10.93;;;10.00;;
980;SDS011;479;53.514;9.994;2022-08-16T09:43:24;10.93;;;10.03;;
980;SDS011;479;53.514;9.994;2022-08-16T09:45:51;11.43;;;10.47;;
980;SDS011;479;53.514;9.994;2022-08-16T09:48:18;11.70;;;10.80;;
980;SDS011;479;53.514;9.994;2022-08-16T09:50:45;10.70;;;9.87;;
980;SDS011;479;53.514;9.994;2022-08-16T09:53:14;10.50;;;9.43;;
980;SDS011;479;53.514;9.994;2022-08-16T09:55:44;11.40;;;10.47;;
980;SDS011;479;53.514;9.994;2022-08-16T09:58:13;10.97;;;10.00;;
980;SDS011;479;53.514;9.994;2022-08-16T10:00:41;10.67;;;9.80;;
980;SDS011;479;53.514;9.994;2022-08-16T10:03:08;10.37;;;9.40;;
980;SDS011;479;53.514;9.994;2022-08-16T10:05:36;12.00;;;10.90;;
980;SDS011;479;53.514;9.994;2022-08-16T10:08:03;11.87;;;10.73;;
980;SDS011;479;53.514;9.994;2022-08-16T10:10:32;9.90;;;9.10;;
980;SDS011;479;53.514;9.994;2022-08-16T10:13:00;9.83;;;8.90;;
980;SDS011;479;53.514;9.994;2022-08-16T10:15:39;10.17;;;9.27;;
980;SDS011;479;53.514;9.994;2022-08-16T10:18:09;14.80;;;8.83;;
980;SDS011;479;53.514;9.994;2022-08-16T10:20:37;9.17;;;8.60;;
980;SDS011;479;53.514;9.994;2022-08-16T10:23:07;10.03;;;9.20;;
980;SDS011;479;53.514;9.994;2022-08-16T10:25:41;8.47;;;7.63;;
980;SDS011;479;53.514;9.994;2022-08-16T10:28:11;8.80;;;8.10;;
980;SDS011;479;53.514;9.994;2022-08-16T10:30:39;13.17;;;12.07;;
980;SDS011;479;53.514;9.994;2022-08-16T10:33:08;10.23;;;9.50;;
980;SDS011;479;53.514;9.994;2022-08-16T10:35:36;10.70;;;9.70;;
980;SDS011;479;53.514;9.994;2022-08-16T10:38:02;10.70;;;9.80;;
980;SDS011;479;53.514;9.994;2022-08-16T10:40:30;10.63;;;9.77;;
980;SDS011;479;53.514;9.994;2022-08-16T10:42:58;10.57;;;9.57;;
980;SDS011;479;53.514;9.994;2022-08-16T10:45:25;13.23;;;12.30;;
980;SDS011;479;53.514;9.994;2022-08-16T10:47:52;11.60;;;10.60;;
980;SDS011;479;53.514;9.994;2022-08-16T10:50:22;12.20;;;11.10;;
980;SDS011;479;53.514;9.994;2022-08-16T10:52:50;10.20;;;9.50;;
980;SDS011;479;53.514;9.994;2022-08-16T10:55:17;13.00;;;11.97;;
980;SDS011;479;53.514;9.994;2022-08-16T10:57:44;14.70;;;10.17;;
980;SDS011;479;53.514;9.994;2022-08-16T11:00:14;10.63;;;9.63;;
980;SDS011;479;53.514;9.994;2022-08-16T11:02:42;9.33;;;8.70;;
980;SDS011;479;53.514;9.994;2022-08-16T11:05:12;13.20;;;12.30;;
980;SDS011;479;53.514;9.994;2022-08-16T11:07:43;9.30;;;8.60;;
980;SDS011;479;53.514;9.994;2022-08-16T11:10:12;13.90;;;12.40;;
980;SDS011;479;53.514;9.994;2022-08-16T11:12:42;10.70;;;9.80;;
980;SDS011;479;53.514;9.994;2022-08-16T11:15:09;11.03;;;10.10;;
980;SDS011;479;53.514;9.994;2022-08-16T11:17:36;11.47;;;10.50;;
980;SDS011;479;53.514;9.994;2022-08-16T11:20:06;13.10;;;11.90;;
980;SDS011;479;53.514;9.994;2022-08-16T11:22:43;11.07;;;10.07;;
980;SDS011;479;53.514;9.994;2022-08-16T11:25:11;24.37;;;22.27;;
980;SDS011;479;53.514;9.994;2022-08-16T11:27:39;11.60;;;10.53;;
980;SDS011;479;53.514;9.994;2022-08-16T11:30:08;9.77;;;8.83;;
980;SDS011;479;53.514;9.994;2022-08-16T11:32:36;10.67;;;9.67;;
980;SDS011;479;53.514;9.994;2022-08-16T11:35:04;10.60;;;9.70;;
980;SDS011;479;53.514;9.994;2022-08-16T11:37:34;13.03;;;11.90;;
980;SDS011;479;53.514;9.994;2022-08-16T11:40:04;10.23;;;9.53;;
980;SDS011;479;53.514;9.994;2022-08-16T11:42:32;12.67;;;9.80;;
980;SDS011;479;53.514;9.994;2022-08-16T11:44:59;11.07;;;10.17;;
980;SDS011;479;53.514;9.994;2022-08-16T11:47:26;11.50;;;10.33;;
980;SDS011;479;53.514;9.994;2022-08-16T11:49:53;13.90;;;10.53;;
980;SDS011;479;53.514;9.994;2022-08-16T11:52:20;12.70;;;11.60;;
980;SDS011;479;53.514;9.994;2022-08-16T11:54:48;13.03;;;11.87;;
980;SDS011;479;53.514;9.994;2022-08-16T11:57:17;27.30;;;24.60;;
980;SDS011;479;53.514;9.994;2022-08-16T11:59:44;13.60;;;12.30;;
980;SDS011;479;53.514;9.994;2022-08-16T12:02:11;12.40;;;11.23;;
980;SDS011;479;53.514;9.994;2022-08-16T12:04:38;12.13;;;11.23;;
980;SDS011;479;53.514;9.994;2022-08-16T12:07:05;9.67;;;8.87;;
980;SDS011;479;53.514;9.994;2022-08-16T12:09:34;9.80;;;8.97;;
980;SDS011;479;53.514;9.994;2022-08-16T12:12:01;26.00;;;23.63;;
980;SDS011;479;53.514;9.994;2022-08-16T12:14:30;10.00;;;9.17;;
980;SDS011;479;53.514;9.994;2022-08-16T12:16:58;15.67;;;14.27;;
980;SDS011;479;53.514;9.994;2022-08-16T12:19:27;9.90;;;9.10;;
980;SDS011;479;53.514;9.994;2022-08-16T12:21:55;8.93;;;8.07;;
980;SDS011;479;53.514;9.994;2022-08-16T12:24:23;8.40;;;7.80;;
980;SDS011;479;53.514;9.994;2022-08-16T12:26:50;9.23;;;8.30;;
980;SDS011;479;53.514;9.994;2022-08-16T12:29:17;8.80;;;8.10;;
980;SDS011;479;53.514;9.994;2022-08-16T12:31:46;9.13;;;8.40;;
980;SDS011;479;53.514;9.994;2022-08-16T12:34:15;21.77;;;19.77;;
980;SDS011;479;53.514;9.994;2022-08-16T12:36:41;11.30;;;10.30;;
980;SDS011;479;53.514;9.994;2022-08-16T12:39:09;11.00;;;10.17;;
980;SDS011;479;53.514;9.994;2022-08-16T12:41:36;34.77;;;31.63;;
980;SDS011;479;53.514;9.994;2022-08-16T12:44:03;11.60;;;10.40;;
980;SDS011;479;53.514;9.994;2022-08-16T12:46:31;23.80;;;21.73;;
980;SDS011;479;53.514;9.994;2022-08-16T12:49:01;10.60;;;9.67;;
980;SDS011;479;53.514;9.994;2022-08-16T12:51:30;10.97;;;10.17;;
980;SDS011;479;53.514;9.994;2022-08-16T12:54:00;16.67;;;15.13;;
980;SDS011;479;53.514;9.994;2022-08-16T12:56:30;10.90;;;10.00;;
980;SDS011;479;53.514;9.994;2022-08-16T12:59:00;12.43;;;10.07;;
980;SDS011;479;53.514;9.994;2022-08-16T13:01:31;12.33;;;11.23;;
980;SDS011;479;53.514;9.994;2022-08-16T13:03:59;10.67;;;9.77;;
980;SDS011;479;53.514;9.994;2022-08-16T13:06:30;11.07;;;10.07;;
980;SDS011;479;53.514;9.994;2022-08-16T13:08:58;17.77;;;16.07;;
980;SDS011;479;53.514;9.994;2022-08-16T13:11:28;14.30;;;13.20;;
980;SDS011;479;53.514;9.994;2022-08-16T13:14:00;11.90;;;11.10;;
980;SDS011;479;53.514;9.994;2022-08-16T13:16:27;19.27;;;17.60;;
980;SDS011;479;53.514;9.994;2022-08-16T13:18:54;12.20;;;11.20;;
980;SDS011;479;53.514;9.994;2022-08-16T13:21:22;15.43;;;14.30;;
980;SDS011;479;53.514;9.994;2022-08-16T13:23:49;13.70;;;11.97;;
980;SDS011;479;53.514;9.994;2022-08-16T13:26:16;11.90;;;10.87;;
980;SDS011;479;53.514;9.994;2022-08-16T13:28:43;11.43;;;10.50;;
980;SDS011;479;53.514;9.994;2022-08-16T13:31:10;10.80;;;10.00;;
980;SDS011;479;53.514;9.994;2022-08-16T13:33:37;10.03;;;9.30;;
980;SDS011;479;53.514;9.994;2022-08-16T13:36:05;11.53;;;10.53;;
980;SDS011;479;53.514;9.994;2022-08-16T13:38:36;19.00;;;17.43;;
980;SDS011;479;53.514;9.994;2022-08-16T13:41:04;10.73;;;9.87;;
980;SDS011;479;53.514;9.994;2022-08-16T13:43:32;9.73;;;8.93;;
980;SDS011;479;53.514;9.994;2022-08-16T13:45:59;9.60;;;8.90;;
980;SDS011;479;53.514;9.994;2022-08-16T13:48:27;10.20;;;9.30;;
980;SDS011;479;53.514;9.994;2022-08-16T13:50:55;30.90;;;27.77;;
980;SDS011;479;53.514;9.994;2022-08-16T13:53:23;10.07;;;9.27;;
980;SDS011;479;53.514;9.994;2022-08-16T13:55:54;11.37;;;10.33;;
980;SDS011;479;53.514;9.994;2022-08-16T13:58:22;11.33;;;9.60;;
980;SDS011;479;53.514;9.994;2022-08-16T14:00:49;11.13;;;9.70;;
980;SDS011;479;53.514;9.994;2022-08-16T14:03:16;10.30;;;9.43;;
980;SDS011;479;53.514;9.994;2022-08-16T14:05:44;12.17;;;11.27;;
980;SDS011;479;53.514;9.994;2022-08-16T14:08:11;17.53;;;16.10;;
980;SDS011;479;53.514;9.994;2022-08-16T14:10:38;10.57;;;9.77;;
980;SDS011;479;53.514;9.994;2022-08-16T14:13:06;14.20;;;13.00;;
980;SDS011;479;53.514;9.994;2022-08-16T14:15:33;11.87;;;11.07;;
980;SDS011;479;53.514;9.994;2022-08-16T14:18:00;9.73;;;8.90;;
980;SDS011;479;53.514;9.994;2022-08-16T14:20:27;9.50;;;8.67;;
980;SDS011;479;53.514;9.994;2022-08-16T14:22:54;27.17;;;24.87;;
980;SDS011;479;53.514;9.994;2022-08-16T14:25:21;61.53;;;56.13;;
980;SDS011;479;53.514;9.994;2022-08-16T14:27:49;9.83;;;9.13;;
980;SDS011;479;53.514;9.994;2022-08-16T14:30:17;9.63;;;8.93;;
980;SDS011;479;53.514;9.994;2022-08-16T14:32:45;10.23;;;8.73;;
980;SDS011;479;53.514;9.994;2022-08-16T14:35:15;9.60;;;8.70;;
980;SDS011;479;53.514;9.994;2022-08-16T14:37:43;10.63;;;9.83;;
980;SDS011;479;53.514;9.994;2022-08-16T14:40:11;10.10;;;9.30;;
980;SDS011;479;53.514;9.994;2022-08-16T14:42:41;13.27;;;9.87;;
980;SDS011;479;53.514;9.994;2022-08-16T14:45:09;9.80;;;9.00;;
980;SDS011;479;53.514;9.994;2022-08-16T14:47:40;17.40;;;16.10;;
980;SDS011;479;53.514;9.994;2022-08-16T14:50:08;9.23;;;8.50;;
980;SDS011;479;53.514;9.994;2022-08-16T14:52:37;11.10;;;10.30;;
980;SDS011;479;53.514;9.994;2022-08-16T14:55:05;15.83;;;14.40;;
980;SDS011;479;53.514;9.994;2022-08-16T14:57:33;9.57;;;8.67;;
980;SDS011;479;53.514;9.994;2022-08-16T15:00:00;10.20;;;9.40;;
980;SDS011;479;53.514;9.994;2022-08-16T15:02:27;11.70;;;10.60;;
980;SDS011;479;53.514;9.994;2022-08-16T15:04:55;10.13;;;9.27;;
980;SDS011;479;53.514;9.994;2022-08-16T15:07:23;12.90;;;11.77;;
980;SDS011;479;53.514;9.994;2022-08-16T15:09:50;11.30;;;10.17;;
980;SDS011;479;53.514;9.994;2022-08-16T15:12:18;10.00;;;9.20;;
980;SDS011;479;53.514;9.994;2022-08-16T15:14:47;9.83;;;9.10;;
980;SDS011;479;53.514;9.994;2022-08-16T15:17:17;9.60;;;8.80;;
980;SDS011;479;53.514;9.994;2022-08-16T15:19:45;10.53;;;9.73;;
980;SDS011;479;53.514;9.994;2022-08-16T15:22:15;9.90;;;9.30;;
980;SDS011;479;53.514;9.994;2022-08-16T15:24:51;9.80;;;8.90;;
980;SDS011;479;53.514;9.994;2022-08-16T15:27:23;11.20;;;10.00;;
980;SDS011;479;53.514;9.994;2022-08-16T15:29:50;10.97;;;10.07;;